Currently 72°F in Riverside (Presidential Park), California, USA
72°F
79°F / 72°F
calm
0.00"
Sunday, August 14, 2022 4:51 AM PDT

Riverside (Presidential Park), California Weather Summary
Last 36 Hours

Temperature Winds Hourly Humidity Dewpoint
Time Report Norm Report Norm Max Gusts Precip. Rpt. Norm Rpt. Norm Pressure
1Sun 04:51 AM  72.1°F  68°F  calm  1 mph  2 mph  0.00"  55%  68%  55°F  57°F  29.92"
3Sun 04:48 AM  71.9°F  68°F  2 mph E  1 mph  2 mph  ----  55%  68%  54°F  57°F  29.92"
Sun 04:00 AM  73.1°F  69°F  calm  1 mph  2 mph  0.00"  54%  67%  55°F  57°F  29.92"
Sun 03:00 AM  73.7°F  70°F  calm  1 mph  3 mph  0.00"  53%  65%  55°F  57°F  29.93"
Sun 02:00 AM  74.5°F  71°F  calm  1 mph  2 mph  0.00"  53%  63%  55°F  57°F  29.94"
Sun 01:00 AM  75.9°F  72°F  calm  1 mph  3 mph  0.00"  51%  61%  56°F  57°F  29.95"
2Sun 12:05 AM  78.6°F  73°F  calm  1 mph  1 mph  ----  47%  58%  56°F  57°F  29.95"
Sun 12:00 AM  78.1°F  73°F  calm  1 mph  8 mph  0.00"  47%  58%  55°F  57°F  29.95"
Sat 11:00 PM  80.5°F  75°F  5 mph SW  2 mph  7 mph  0.00"  43%  54%  55°F  57°F  29.95"
Sat 10:00 PM  81.1°F  77°F  1 mph NW  3 mph  8 mph  0.00"  36%  50%  51°F  56°F  29.95"
Sat 09:00 PM  83.3°F  79°F  4 mph W  3 mph  10 mph  0.00"  35%  45%  52°F  55°F  29.94"
Sat 08:00 PM  86.5°F  82°F  7 mph W  4 mph  11 mph  0.00"  28%  40%  48°F  54°F  29.91"
Sat 07:00 PM  88.7°F  86°F  8 mph SW  6 mph  16 mph  0.00"  28%  34%  51°F  53°F  29.88"
Sat 06:00 PM  91.1°F  88°F  11 mph W  8 mph  21 mph  0.00"  25%  30%  50°F  52°F  29.86"
Sat 05:00 PM  94.1°F  90°F  15 mph SW  8 mph  23 mph  0.00"  21%  29%  47°F  52°F  29.86"
Sat 04:00 PM  96.8°F  92°F  8 mph W  8 mph  19 mph  0.00"  20%  27%  48°F  52°F  29.87"
Sat 03:00 PM  98.2°F  92°F  10 mph W  7 mph  17 mph  0.00"  16%  27%  44°F  53°F  29.88"
Sat 02:00 PM  98.5°F  92°F  7 mph SW  6 mph  13 mph  0.00"  17%  28%  45°F  53°F  29.89"
Sat 01:00 PM  96.9°F  90°F  6 mph W  5 mph  11 mph  0.00"  19%  30%  47°F  54°F  29.90"
Sat 12:00 PM  95.1°F  87°F  3 mph SW  4 mph  10 mph  0.00"  25%  36%  53°F  56°F  29.92"
Sat 11:00 AM  91.3°F  83°F  3 mph W  3 mph  8 mph  0.00"  29%  43%  54°F  58°F  29.94"
Sat 10:00 AM  88.0°F  79°F  2 mph W  2 mph  3 mph  0.00"  32%  52%  53°F  59°F  29.95"
Sat 09:00 AM  84.3°F  75°F  calm  2 mph  2 mph  0.00"  36%  59%  53°F  59°F  29.95"
Sat 08:00 AM  75.3°F  70°F  calm  1 mph  none  0.00"  48%  68%  54°F  58°F  29.95"
Sat 07:00 AM  71.6°F  67°F  calm  1 mph  3 mph  0.00"  53%  71%  53°F  57°F  29.94"
Sat 06:00 AM  71.5°F  67°F  calm  1 mph  3 mph  0.00"  52%  70%  53°F  57°F  29.93"
Sat 05:00 AM  72.6°F  68°F  calm  1 mph  3 mph  0.00"  53%  68%  54°F  57°F  29.93"
Sat 04:00 AM  72.7°F  69°F  1 mph W  1 mph  4 mph  0.00"  51%  67%  53°F  57°F  29.94"
Sat 03:00 AM  73.9°F  70°F  calm  1 mph  3 mph  0.00"  49%  65%  53°F  57°F  29.93"
Sat 02:00 AM  74.7°F  71°F  calm  1 mph  3 mph  0.00"  48%  63%  53°F  57°F  29.93"
Sat 01:00 AM  75.9°F  72°F  calm  1 mph  5 mph  0.00"  46%  61%  53°F  57°F  29.94"
Sat 12:00 AM  77.6°F  73°F  1 mph NW  1 mph  4 mph  0.00"  43%  58%  52°F  57°F  29.95"
Fri 11:00 PM  79.0°F  75°F  1 mph S  2 mph  7 mph  0.00"  42%  54%  53°F  57°F  29.95"
Fri 10:00 PM  80.7°F  77°F  3 mph SW  3 mph  10 mph  0.00"  39%  50%  53°F  56°F  29.93"
Fri 09:00 PM  82.9°F  79°F  4 mph SW  3 mph  9 mph  0.00"  33%  45%  50°F  55°F  29.91"
Fri 08:00 PM  86.3°F  82°F  6 mph W  4 mph  13 mph  0.00"  25%  39%  45°F  54°F  29.89"
Fri 07:00 PM  90.4°F  86°F  8 mph SW  6 mph  15 mph  0.00"  17%  34%  38°F  53°F  29.86"
Fri 06:00 PM  93.3°F  88°F  7 mph W  8 mph  18 mph  0.00"  9%  30%  25°F  52°F  29.85"
Fri 05:00 PM  94.8°F  90°F  9 mph SW  8 mph  18 mph  0.00"  12%  28%  32°F  52°F  29.85"

  1. Current weather data. No green row appears if the current weather data is also the high or low for the current day.
  2. High temperature for the current day.
  3. Low temperature for the current day.

The Riverside (Presidential Park), California weather pages are a service of WeatherCurrents.
Copyright ©2022  WeatherCurrents. All rights reserved. - Submit questions and comments - Privacy Policy

This page automatically refreshes every 10 minutes.